Stephen M. White — WCU6542 — position and weather

sailwx.info

Track history (hours):
 
Tides and Currents Weather Stations Pressure Air Temp Water Temp Dewpoint Dewpoint Depression Visibility Wind Speed Wind Dir Waves Ship Positions

Stephen M. White

Owner: LOS ANGELES, CITY OF, SAN PEDRO, CA. More information available from US FCC via Universal Licensing System and Coast Guard Vessel Documentation Center.

Last reported at 2015-Jan-26 18:25 UTC. Time now 2015-Jan-26 20:31 UTC.
Position N 33°43' W 118°16'.

Length 20 m.

Type: Pilot. MMSI: 367049470.

Date/timePositionNaut miles runAvg speedWind from/ knotsBaromVisibWave heightAir tempDewpointWater temp
2015-Jan-26 18:25N 33°43' W 118°16'3 0.2
2015-Jan-26 01:20N 33°42' W 118°13'3 1.5
2015-Jan-25 23:14N 33°43' W 118°16'0 0.0
2015-Jan-24 08:32N 33°43' W 118°16'0 0.0
2015-Jan-24 07:33N 33°43' W 118°16'0 0.0
2015-Jan-24 06:33N 33°43' W 118°16'0 0.0
2015-Jan-24 05:34N 33°43' W 118°16'0 0.0
2015-Jan-24 04:11N 33°43' W 118°16'1 0.9
2015-Jan-24 03:34N 33°43' W 118°16'1 1.3
2015-Jan-24 02:33N 33°42' W 118°15'2 1.8
2015-Jan-24 01:31N 33°43' W 118°16'0 0.0
2015-Jan-24 00:32N 33°43' W 118°16'2 0.4
2015-Jan-23 20:03N 33°42' W 118°15'1 0.6
2015-Jan-23 17:33N 33°43' W 118°16'0 0.5
2015-Jan-23 16:30N 33°43' W 118°16'0 0.0
2015-Jan-23 15:19N 33°43' W 118°16'0 0.0
2015-Jan-23 14:32N 33°43' W 118°16'4 3.5
2015-Jan-23 13:25N 33°40' W 118°14'4 4.5
2015-Jan-23 12:33N 33°43' W 118°16'0 0.0
2015-Jan-23 11:33N 33°43' W 118°16'0 0.0
2015-Jan-23 10:33N 33°43' W 118°16'0 0.0
2015-Jan-23 09:33N 33°43' W 118°16'0 0.0
2015-Jan-23 08:33N 33°43' W 118°16'0 0.0
2015-Jan-23 07:33N 33°43' W 118°16'0 0.0
2015-Jan-23 06:33N 33°43' W 118°16'0 0.0
2015-Jan-23 05:33N 33°43' W 118°16'0 0.0
2015-Jan-23 04:33N 33°43' W 118°16'1 0.6
2015-Jan-23 03:33N 33°43' W 118°16'1 0.6
2015-Jan-23 02:33N 33°43' W 118°16'2 1.4
2015-Jan-23 01:25N 33°42' W 118°15'1 1.6
2015-Jan-23 00:33N 33°43' W 118°16'0 0.2
2015-Jan-22 23:34N 33°43' W 118°16'0 0.0
2015-Jan-22 22:33N 33°43' W 118°16'0 0.0
2015-Jan-22 21:33N 33°43' W 118°16'0 0.0
2015-Jan-22 20:33N 33°43' W 118°16'0 0.0
2015-Jan-22 19:33N 33°43' W 118°16'0 0.0
2015-Jan-22 18:33N 33°43' W 118°16'0 0.0
2015-Jan-22 17:33N 33°43' W 118°16'0 0.0
2015-Jan-22 16:33N 33°43' W 118°16'0 0.0
2015-Jan-22 15:34N 33°43' W 118°16'0 0.0
2015-Jan-22 14:33N 33°43' W 118°16'0 0.0
2015-Jan-22 13:33N 33°43' W 118°16'0 0.0
2015-Jan-22 12:33N 33°43' W 118°16'0 0.0
2015-Jan-22 11:33N 33°43' W 118°16'0 0.0
2015-Jan-22 10:33N 33°43' W 118°16'0 0.0
2015-Jan-22 09:33N 33°43' W 118°16'0 0.0
2015-Jan-22 08:33N 33°43' W 118°16'0 0.0
2015-Jan-22 07:33N 33°43' W 118°16'0 0.0
2015-Jan-22 06:33N 33°43' W 118°16'0 0.0
2015-Jan-22 05:33N 33°43' W 118°16'0 0.0
2015-Jan-22 04:33N 33°43' W 118°16'0 0.0
2015-Jan-22 03:33N 33°43' W 118°16'0 0.0
2015-Jan-22 02:32N 33°43' W 118°16'4 2.0
2015-Jan-22 00:34N 33°40' W 118°15'2 0.1
2015-Jan-21 12:18N 33°40' W 118°13'4 0.3
2015-Jan-20 22:28N 33°43' W 118°16'0 0.0
2015-Jan-20 21:34N 33°43' W 118°16'0 0.0
2015-Jan-20 20:32N 33°43' W 118°16'0 0.0
2015-Jan-20 18:29N 33°43' W 118°16'0 0.0
2015-Jan-20 17:20N 33°43' W 118°16'0 0.0
2015-Jan-20 16:27N 33°43' W 118°16'0 0.0
2015-Jan-20 14:29N 33°43' W 118°16'0 0.2
2015-Jan-20 13:33N 33°43' W 118°16'0 0.2
2015-Jan-20 12:32N 33°43' W 118°16'0 0.0
2015-Jan-20 11:33N 33°43' W 118°16'0 0.0
2015-Jan-20 10:16N 33°43' W 118°16'0 0.0
2015-Jan-20 09:30N 33°43' W 118°16'0 0.0
2015-Jan-20 08:33N 33°43' W 118°16'0 0.0
2015-Jan-20 07:33N 33°43' W 118°16'0 0.0
2015-Jan-20 06:33N 33°43' W 118°16'0 0.0
2015-Jan-20 05:33N 33°43' W 118°16'0 0.0
2015-Jan-20 04:33N 33°43' W 118°16'0 0.0
2015-Jan-20 03:20N 33°43' W 118°16'0 0.0
2015-Jan-20 02:33N 33°43' W 118°16'0 0.0
2015-Jan-20 01:33N 33°43' W 118°16'0 0.0
2015-Jan-20 00:34N 33°43' W 118°16'0 0.0
2015-Jan-19 23:33N 33°43' W 118°16'0 0.0
2015-Jan-19 22:33N 33°43' W 118°16'3 1.1
2015-Jan-19 20:08N 33°41' W 118°15'3 4.5
2015-Jan-19 19:33N 33°43' W 118°16'0 0.0
2015-Jan-19 18:34N 33°43' W 118°16'0 0.0
2015-Jan-19 17:33N 33°43' W 118°16'0 0.0
2015-Jan-19 16:34N 33°43' W 118°16'0 0.0
2015-Jan-19 15:34N 33°43' W 118°16'0 0.0
2015-Jan-19 14:33N 33°43' W 118°16'0 0.0
2015-Jan-19 13:33N 33°43' W 118°16'0 0.0
2015-Jan-19 12:34N 33°43' W 118°16'0 0.0
2015-Jan-19 11:33N 33°43' W 118°16'0 0.0
2015-Jan-19 10:33N 33°43' W 118°16'0 0.0
2015-Jan-19 09:33N 33°43' W 118°16'3 3.0
2015-Jan-19 08:34N 33°41' W 118°14'3 3.0
2015-Jan-19 07:33N 33°43' W 118°16'0 0.0
2015-Jan-19 06:33N 33°43' W 118°16'0 0.0
2015-Jan-19 05:34N 33°43' W 118°16'0 0.0
2015-Jan-19 04:33N 33°43' W 118°16'0 0.0
2015-Jan-19 03:33N 33°43' W 118°16'0 0.0
2015-Jan-19 02:33N 33°43' W 118°16'0 0.0
2015-Jan-19 01:33N 33°43' W 118°16'0 0.0
2015-Jan-19 00:33N 33°43' W 118°16'0 0.0
2015-Jan-18 23:33N 33°43' W 118°16'0 0.0
2015-Jan-18 22:33N 33°43' W 118°16'0 0.0
2015-Jan-18 21:34N 33°43' W 118°16'0 0.0
2015-Jan-18 20:34N 33°43' W 118°16'0 0.0
2015-Jan-18 19:33N 33°43' W 118°16'0 0.0
2015-Jan-18 18:34N 33°43' W 118°16'1 0.5
2015-Jan-18 17:22N 33°43' W 118°16'1 0.7
2015-Jan-18 16:32N 33°43' W 118°16'0 0.0
2015-Jan-18 15:32N 33°43' W 118°16'0 0.0
2015-Jan-18 14:33N 33°43' W 118°16'0 0.0
2015-Jan-18 13:28N 33°43' W 118°16'0 0.0
2015-Jan-18 12:09N 33°43' W 118°16'0 0.0
2015-Jan-18 11:33N 33°43' W 118°16'0 0.0
2015-Jan-18 10:33N 33°43' W 118°16'0 0.0
2015-Jan-18 09:33N 33°43' W 118°16'0 0.0
2015-Jan-18 08:33N 33°43' W 118°16'0 0.0
2015-Jan-18 07:33N 33°43' W 118°16'0 0.0
2015-Jan-18 06:33N 33°43' W 118°16'0 0.0
2015-Jan-18 05:33N 33°43' W 118°16'0 0.0
2015-Jan-18 04:33N 33°43' W 118°16'0 0.4
2015-Jan-18 03:34N 33°43' W 118°16'2 1.5
2015-Jan-18 02:31N 33°42' W 118°15'2 1.8
2015-Jan-18 01:33N 33°43' W 118°16'0 0.0
2015-Jan-18 00:32N 33°43' W 118°16'0 0.0
2015-Jan-17 23:14N 33°43' W 118°16'0 0.0
2015-Jan-17 22:33N 33°43' W 118°16'0 0.0
2015-Jan-17 21:33N 33°43' W 118°16'0 0.0
2015-Jan-17 20:32N 33°43' W 118°16'0 0.0
2015-Jan-17 19:33N 33°43' W 118°16'0 0.4
2015-Jan-17 18:32N 33°43' W 118°16'0 0.5
2015-Jan-17 17:33N 33°43' W 118°16'0 0.0
2015-Jan-17 16:17N 33°43' W 118°16'0 0.0
2015-Jan-17 15:32N 33°43' W 118°16'0 0.0
2015-Jan-17 14:33N 33°43' W 118°16'2 2.0
2015-Jan-17 13:33N 33°42' W 118°14'2 2.0
2015-Jan-17 12:33N 33°43' W 118°16'0 0.0
2015-Jan-17 11:34N 33°43' W 118°16'0 0.0
2015-Jan-17 10:34N 33°43' W 118°16'0 0.0
2015-Jan-17 09:33N 33°43' W 118°16'0 0.0
2015-Jan-17 08:34N 33°43' W 118°16'0 0.0
2015-Jan-17 07:34N 33°43' W 118°16'0 0.0
2015-Jan-17 06:34N 33°43' W 118°16'0 0.0
2015-Jan-17 05:33N 33°43' W 118°16'0 0.0
2015-Jan-17 04:33N 33°43' W 118°16'1 0.9
2015-Jan-17 03:34N 33°43' W 118°15'0 0.1
2015-Jan-17 02:34N 33°43' W 118°15'1 0.9
2015-Jan-17 01:33N 33°43' W 118°16'0 0.0
2015-Jan-17 00:33N 33°43' W 118°16'0 0.0
2015-Jan-16 23:33N 33°43' W 118°16'0 0.0
2015-Jan-16 22:33N 33°43' W 118°16'0 0.0
2015-Jan-16 21:25N 33°43' W 118°16'0 0.0
2015-Jan-16 20:33N 33°43' W 118°16'0 0.0
2015-Jan-16 19:33N 33°43' W 118°16'0 0.0
2015-Jan-16 18:33N 33°43' W 118°16'  
Track history (hours):
 
Tides and Currents Weather Stations Pressure Air Temp Water Temp Dewpoint Dewpoint Depression Visibility Wind Speed Wind Dir Waves Ship Positions

Stephen M. White

Owner: LOS ANGELES, CITY OF, SAN PEDRO, CA. More information available from US FCC via Universal Licensing System and Coast Guard Vessel Documentation Center.

Last reported at 2015-Jan-26 18:25 UTC. Time now 2015-Jan-26 20:31 UTC.
Position N 33°43' W 118°16'.

Length 20 m.

Type: Pilot. MMSI: 367049470.

Date/timePositionNaut miles runAvg speedWind from/ knotsBaromVisibWave heightAir tempDewpointWater temp
2015-Jan-26 18:25N 33°43' W 118°16'3 0.2
2015-Jan-26 01:20N 33°42' W 118°13'3 1.5
2015-Jan-25 23:14N 33°43' W 118°16'0 0.0
2015-Jan-24 08:32N 33°43' W 118°16'0 0.0
2015-Jan-24 07:33N 33°43' W 118°16'0 0.0
2015-Jan-24 06:33N 33°43' W 118°16'0 0.0
2015-Jan-24 05:34N 33°43' W 118°16'0 0.0
2015-Jan-24 04:11N 33°43' W 118°16'1 0.9
2015-Jan-24 03:34N 33°43' W 118°16'1 1.3
2015-Jan-24 02:33N 33°42' W 118°15'2 1.8
2015-Jan-24 01:31N 33°43' W 118°16'0 0.0
2015-Jan-24 00:32N 33°43' W 118°16'2 0.4
2015-Jan-23 20:03N 33°42' W 118°15'1 0.6
2015-Jan-23 17:33N 33°43' W 118°16'0 0.5
2015-Jan-23 16:30N 33°43' W 118°16'0 0.0
2015-Jan-23 15:19N 33°43' W 118°16'0 0.0
2015-Jan-23 14:32N 33°43' W 118°16'4 3.5
2015-Jan-23 13:25N 33°40' W 118°14'4 4.5
2015-Jan-23 12:33N 33°43' W 118°16'0 0.0
2015-Jan-23 11:33N 33°43' W 118°16'0 0.0
2015-Jan-23 10:33N 33°43' W 118°16'0 0.0
2015-Jan-23 09:33N 33°43' W 118°16'0 0.0
2015-Jan-23 08:33N 33°43' W 118°16'0 0.0
2015-Jan-23 07:33N 33°43' W 118°16'0 0.0
2015-Jan-23 06:33N 33°43' W 118°16'0 0.0
2015-Jan-23 05:33N 33°43' W 118°16'0 0.0
2015-Jan-23 04:33N 33°43' W 118°16'1 0.6
2015-Jan-23 03:33N 33°43' W 118°16'1 0.6
2015-Jan-23 02:33N 33°43' W 118°16'2 1.4
2015-Jan-23 01:25N 33°42' W 118°15'1 1.6
2015-Jan-23 00:33N 33°43' W 118°16'0 0.2
2015-Jan-22 23:34N 33°43' W 118°16'0 0.0
2015-Jan-22 22:33N 33°43' W 118°16'0 0.0
2015-Jan-22 21:33N 33°43' W 118°16'0 0.0
2015-Jan-22 20:33N 33°43' W 118°16'0 0.0
2015-Jan-22 19:33N 33°43' W 118°16'0 0.0
2015-Jan-22 18:33N 33°43' W 118°16'0 0.0
2015-Jan-22 17:33N 33°43' W 118°16'0 0.0
2015-Jan-22 16:33N 33°43' W 118°16'0 0.0
2015-Jan-22 15:34N 33°43' W 118°16'0 0.0
2015-Jan-22 14:33N 33°43' W 118°16'0 0.0
2015-Jan-22 13:33N 33°43' W 118°16'0 0.0
2015-Jan-22 12:33N 33°43' W 118°16'0 0.0
2015-Jan-22 11:33N 33°43' W 118°16'0 0.0
2015-Jan-22 10:33N 33°43' W 118°16'0 0.0
2015-Jan-22 09:33N 33°43' W 118°16'0 0.0
2015-Jan-22 08:33N 33°43' W 118°16'0 0.0
2015-Jan-22 07:33N 33°43' W 118°16'0 0.0
2015-Jan-22 06:33N 33°43' W 118°16'0 0.0
2015-Jan-22 05:33N 33°43' W 118°16'0 0.0
2015-Jan-22 04:33N 33°43' W 118°16'0 0.0
2015-Jan-22 03:33N 33°43' W 118°16'0 0.0
2015-Jan-22 02:32N 33°43' W 118°16'4 2.0
2015-Jan-22 00:34N 33°40' W 118°15'2 0.1
2015-Jan-21 12:18N 33°40' W 118°13'4 0.3
2015-Jan-20 22:28N 33°43' W 118°16'0 0.0
2015-Jan-20 21:34N 33°43' W 118°16'0 0.0
2015-Jan-20 20:32N 33°43' W 118°16'0 0.0
2015-Jan-20 18:29N 33°43' W 118°16'0 0.0
2015-Jan-20 17:20N 33°43' W 118°16'0 0.0
2015-Jan-20 16:27N 33°43' W 118°16'0 0.0
2015-Jan-20 14:29N 33°43' W 118°16'0 0.2
2015-Jan-20 13:33N 33°43' W 118°16'0 0.2
2015-Jan-20 12:32N 33°43' W 118°16'0 0.0
2015-Jan-20 11:33N 33°43' W 118°16'0 0.0
2015-Jan-20 10:16N 33°43' W 118°16'0 0.0
2015-Jan-20 09:30N 33°43' W 118°16'0 0.0
2015-Jan-20 08:33N 33°43' W 118°16'0 0.0
2015-Jan-20 07:33N 33°43' W 118°16'0 0.0
2015-Jan-20 06:33N 33°43' W 118°16'0 0.0
2015-Jan-20 05:33N 33°43' W 118°16'0 0.0
2015-Jan-20 04:33N 33°43' W 118°16'0 0.0
2015-Jan-20 03:20N 33°43' W 118°16'0 0.0
2015-Jan-20 02:33N 33°43' W 118°16'0 0.0
2015-Jan-20 01:33N 33°43' W 118°16'0 0.0
2015-Jan-20 00:34N 33°43' W 118°16'0 0.0
2015-Jan-19 23:33N 33°43' W 118°16'0 0.0
2015-Jan-19 22:33N 33°43' W 118°16'3 1.1
2015-Jan-19 20:08N 33°41' W 118°15'3 4.5
2015-Jan-19 19:33N 33°43' W 118°16'0 0.0
2015-Jan-19 18:34N 33°43' W 118°16'0 0.0
2015-Jan-19 17:33N 33°43' W 118°16'0 0.0
2015-Jan-19 16:34N 33°43' W 118°16'0 0.0
2015-Jan-19 15:34N 33°43' W 118°16'0 0.0
2015-Jan-19 14:33N 33°43' W 118°16'0 0.0
2015-Jan-19 13:33N 33°43' W 118°16'0 0.0
2015-Jan-19 12:34N 33°43' W 118°16'0 0.0
2015-Jan-19 11:33N 33°43' W 118°16'0 0.0
2015-Jan-19 10:33N 33°43' W 118°16'0 0.0
2015-Jan-19 09:33N 33°43' W 118°16'3 3.0
2015-Jan-19 08:34N 33°41' W 118°14'3 3.0
2015-Jan-19 07:33N 33°43' W 118°16'0 0.0
2015-Jan-19 06:33N 33°43' W 118°16'0 0.0
2015-Jan-19 05:34N 33°43' W 118°16'0 0.0
2015-Jan-19 04:33N 33°43' W 118°16'0 0.0
2015-Jan-19 03:33N 33°43' W 118°16'0 0.0
2015-Jan-19 02:33N 33°43' W 118°16'0 0.0
2015-Jan-19 01:33N 33°43' W 118°16'0 0.0
2015-Jan-19 00:33N 33°43' W 118°16'0 0.0
2015-Jan-18 23:33N 33°43' W 118°16'0 0.0
2015-Jan-18 22:33N 33°43' W 118°16'0 0.0
2015-Jan-18 21:34N 33°43' W 118°16'0 0.0
2015-Jan-18 20:34N 33°43' W 118°16'0 0.0
2015-Jan-18 19:33N 33°43' W 118°16'0 0.0
2015-Jan-18 18:34N 33°43' W 118°16'1 0.5
2015-Jan-18 17:22N 33°43' W 118°16'1 0.7
2015-Jan-18 16:32N 33°43' W 118°16'0 0.0
2015-Jan-18 15:32N 33°43' W 118°16'0 0.0
2015-Jan-18 14:33N 33°43' W 118°16'0 0.0
2015-Jan-18 13:28N 33°43' W 118°16'0 0.0
2015-Jan-18 12:09N 33°43' W 118°16'0 0.0
2015-Jan-18 11:33N 33°43' W 118°16'0 0.0
2015-Jan-18 10:33N 33°43' W 118°16'0 0.0
2015-Jan-18 09:33N 33°43' W 118°16'0 0.0
2015-Jan-18 08:33N 33°43' W 118°16'0 0.0
2015-Jan-18 07:33N 33°43' W 118°16'0 0.0
2015-Jan-18 06:33N 33°43' W 118°16'0 0.0
2015-Jan-18 05:33N 33°43' W 118°16'0 0.0
2015-Jan-18 04:33N 33°43' W 118°16'0 0.4
2015-Jan-18 03:34N 33°43' W 118°16'2 1.5
2015-Jan-18 02:31N 33°42' W 118°15'2 1.8
2015-Jan-18 01:33N 33°43' W 118°16'0 0.0
2015-Jan-18 00:32N 33°43' W 118°16'0 0.0
2015-Jan-17 23:14N 33°43' W 118°16'0 0.0
2015-Jan-17 22:33N 33°43' W 118°16'0 0.0
2015-Jan-17 21:33N 33°43' W 118°16'0 0.0
2015-Jan-17 20:32N 33°43' W 118°16'0 0.0
2015-Jan-17 19:33N 33°43' W 118°16'0 0.4
2015-Jan-17 18:32N 33°43' W 118°16'0 0.5
2015-Jan-17 17:33N 33°43' W 118°16'0 0.0
2015-Jan-17 16:17N 33°43' W 118°16'0 0.0
2015-Jan-17 15:32N 33°43' W 118°16'0 0.0
2015-Jan-17 14:33N 33°43' W 118°16'2 2.0
2015-Jan-17 13:33N 33°42' W 118°14'2 2.0
2015-Jan-17 12:33N 33°43' W 118°16'0 0.0
2015-Jan-17 11:34N 33°43' W 118°16'0 0.0
2015-Jan-17 10:34N 33°43' W 118°16'0 0.0
2015-Jan-17 09:33N 33°43' W 118°16'0 0.0
2015-Jan-17 08:34N 33°43' W 118°16'0 0.0
2015-Jan-17 07:34N 33°43' W 118°16'0 0.0
2015-Jan-17 06:34N 33°43' W 118°16'0 0.0
2015-Jan-17 05:33N 33°43' W 118°16'0 0.0
2015-Jan-17 04:33N 33°43' W 118°16'1 0.9
2015-Jan-17 03:34N 33°43' W 118°15'0 0.1
2015-Jan-17 02:34N 33°43' W 118°15'1 0.9
2015-Jan-17 01:33N 33°43' W 118°16'0 0.0
2015-Jan-17 00:33N 33°43' W 118°16'0 0.0
2015-Jan-16 23:33N 33°43' W 118°16'0 0.0
2015-Jan-16 22:33N 33°43' W 118°16'0 0.0
2015-Jan-16 21:25N 33°43' W 118°16'0 0.0
2015-Jan-16 20:33N 33°43' W 118°16'0 0.0
2015-Jan-16 19:33N 33°43' W 118°16'0 0.0
2015-Jan-16 18:33N 33°43' W 118°16'  

Dump ship's entire track history